sensor_id;sensor_type;location;lat;lon;timestamp;temperature;humidity
530;DHT22;251;48.704;9.210;2023-07-08T00:00:14;16.50;25.90
530;DHT22;251;48.704;9.210;2023-07-08T00:02:48;16.50;26.20
530;DHT22;251;48.704;9.210;2023-07-08T00:05:16;16.50;26.10
530;DHT22;251;48.704;9.210;2023-07-08T00:07:43;16.50;25.90
530;DHT22;251;48.704;9.210;2023-07-08T00:10:13;16.50;25.90
530;DHT22;251;48.704;9.210;2023-07-08T00:12:40;16.50;26.30
530;DHT22;251;48.704;9.210;2023-07-08T00:15:08;16.50;26.20
530;DHT22;251;48.704;9.210;2023-07-08T00:17:35;16.50;25.90
530;DHT22;251;48.704;9.210;2023-07-08T00:20:12;16.40;26.20
530;DHT22;251;48.704;9.210;2023-07-08T00:22:40;16.40;27.10
530;DHT22;251;48.704;9.210;2023-07-08T00:25:08;16.30;26.50
530;DHT22;251;48.704;9.210;2023-07-08T00:27:34;16.30;26.80
530;DHT22;251;48.704;9.210;2023-07-08T00:30:01;16.30;27.80
530;DHT22;251;48.704;9.210;2023-07-08T00:32:31;16.30;27.00
530;DHT22;251;48.704;9.210;2023-07-08T00:34:57;16.20;26.90
530;DHT22;251;48.704;9.210;2023-07-08T00:37:26;16.20;27.20
530;DHT22;251;48.704;9.210;2023-07-08T00:39:55;16.10;27.50
530;DHT22;251;48.704;9.210;2023-07-08T00:42:24;16.10;27.40
530;DHT22;251;48.704;9.210;2023-07-08T00:44:51;16.00;27.50
530;DHT22;251;48.704;9.210;2023-07-08T00:47:18;16.00;28.50
530;DHT22;251;48.704;9.210;2023-07-08T00:49:49;15.90;27.80
530;DHT22;251;48.704;9.210;2023-07-08T00:52:21;15.90;27.80
530;DHT22;251;48.704;9.210;2023-07-08T00:54:52;15.90;28.00
530;DHT22;251;48.704;9.210;2023-07-08T00:57:20;15.80;28.70
530;DHT22;251;48.704;9.210;2023-07-08T00:59:52;15.70;28.90
530;DHT22;251;48.704;9.210;2023-07-08T01:02:21;15.80;28.80
530;DHT22;251;48.704;9.210;2023-07-08T01:04:52;15.70;28.90
530;DHT22;251;48.704;9.210;2023-07-08T01:07:20;15.70;29.20
530;DHT22;251;48.704;9.210;2023-07-08T01:09:51;15.70;29.40
530;DHT22;251;48.704;9.210;2023-07-08T01:12:23;15.60;30.00
530;DHT22;251;48.704;9.210;2023-07-08T01:14:53;15.50;29.20
530;DHT22;251;48.704;9.210;2023-07-08T01:17:22;15.50;29.50
530;DHT22;251;48.704;9.210;2023-07-08T01:19:50;15.50;28.60
530;DHT22;251;48.704;9.210;2023-07-08T01:22:18;15.50;28.80
530;DHT22;251;48.704;9.210;2023-07-08T01:24:45;15.40;29.10
530;DHT22;251;48.704;9.210;2023-07-08T01:27:15;15.40;28.70
530;DHT22;251;48.704;9.210;2023-07-08T01:29:43;15.40;28.80
530;DHT22;251;48.704;9.210;2023-07-08T01:32:13;15.40;28.90
530;DHT22;251;48.704;9.210;2023-07-08T01:34:44;15.40;29.90
530;DHT22;251;48.704;9.210;2023-07-08T01:37:30;15.20;31.30
530;DHT22;251;48.704;9.210;2023-07-08T01:39:57;15.20;30.60
530;DHT22;251;48.704;9.210;2023-07-08T01:42:24;15.10;30.60
530;DHT22;251;48.704;9.210;2023-07-08T01:44:51;15.10;30.60
530;DHT22;251;48.704;9.210;2023-07-08T01:47:20;15.10;31.30
530;DHT22;251;48.704;9.210;2023-07-08T01:49:48;15.00;32.70
530;DHT22;251;48.704;9.210;2023-07-08T01:52:16;15.00;32.60
530;DHT22;251;48.704;9.210;2023-07-08T01:54:45;14.90;33.40
530;DHT22;251;48.704;9.210;2023-07-08T01:57:20;14.90;33.30
530;DHT22;251;48.704;9.210;2023-07-08T01:59:47;14.90;33.00
530;DHT22;251;48.704;9.210;2023-07-08T02:02:14;14.80;33.60
530;DHT22;251;48.704;9.210;2023-07-08T02:04:40;14.80;32.90
530;DHT22;251;48.704;9.210;2023-07-08T02:07:07;14.70;34.00
530;DHT22;251;48.704;9.210;2023-07-08T02:09:34;14.70;34.30
530;DHT22;251;48.704;9.210;2023-07-08T02:12:03;14.70;35.50
530;DHT22;251;48.704;9.210;2023-07-08T02:14:29;14.70;33.60
530;DHT22;251;48.704;9.210;2023-07-08T02:16:57;14.70;34.10
530;DHT22;251;48.704;9.210;2023-07-08T02:19:27;14.60;35.50
530;DHT22;251;48.704;9.210;2023-07-08T02:21:54;14.60;35.20
530;DHT22;251;48.704;9.210;2023-07-08T02:24:21;14.60;34.10
530;DHT22;251;48.704;9.210;2023-07-08T02:26:48;14.50;34.80
530;DHT22;251;48.704;9.210;2023-07-08T02:29:16;14.50;35.10
530;DHT22;251;48.704;9.210;2023-07-08T02:31:43;14.50;35.90
530;DHT22;251;48.704;9.210;2023-07-08T02:34:10;14.50;34.50
530;DHT22;251;48.704;9.210;2023-07-08T02:36:37;14.50;34.40
530;DHT22;251;48.704;9.210;2023-07-08T02:39:04;14.50;34.90
530;DHT22;251;48.704;9.210;2023-07-08T02:41:31;14.50;34.60
530;DHT22;251;48.704;9.210;2023-07-08T02:43:58;14.50;37.40
530;DHT22;251;48.704;9.210;2023-07-08T02:46:27;14.40;35.80
530;DHT22;251;48.704;9.210;2023-07-08T02:48:54;14.50;37.90
530;DHT22;251;48.704;9.210;2023-07-08T02:51:20;14.60;35.70
530;DHT22;251;48.704;9.210;2023-07-08T02:53:48;14.50;34.60
530;DHT22;251;48.704;9.210;2023-07-08T02:56:16;14.60;35.70
530;DHT22;251;48.704;9.210;2023-07-08T02:58:42;14.50;35.20
530;DHT22;251;48.704;9.210;2023-07-08T03:01:09;14.50;35.70
530;DHT22;251;48.704;9.210;2023-07-08T03:03:37;14.50;35.10
530;DHT22;251;48.704;9.210;2023-07-08T03:06:05;14.50;35.20
530;DHT22;251;48.704;9.210;2023-07-08T03:08:32;14.70;33.40
530;DHT22;251;48.704;9.210;2023-07-08T03:11:00;14.80;31.30
530;DHT22;251;48.704;9.210;2023-07-08T03:13:27;15.00;28.80
530;DHT22;251;48.704;9.210;2023-07-08T03:15:55;14.90;33.10
530;DHT22;251;48.704;9.210;2023-07-08T03:18:22;15.00;32.20
530;DHT22;251;48.704;9.210;2023-07-08T03:20:54;15.10;30.50
530;DHT22;251;48.704;9.210;2023-07-08T03:23:22;15.20;29.20
530;DHT22;251;48.704;9.210;2023-07-08T03:25:50;15.10;31.40
530;DHT22;251;48.704;9.210;2023-07-08T03:28:18;15.10;31.20
530;DHT22;251;48.704;9.210;2023-07-08T03:30:45;15.10;32.30
530;DHT22;251;48.704;9.210;2023-07-08T03:33:17;15.10;28.40
530;DHT22;251;48.704;9.210;2023-07-08T03:35:45;15.20;29.10
530;DHT22;251;48.704;9.210;2023-07-08T03:38:13;15.20;29.50
530;DHT22;251;48.704;9.210;2023-07-08T03:40:40;15.30;30.00
530;DHT22;251;48.704;9.210;2023-07-08T03:43:08;15.30;28.70
530;DHT22;251;48.704;9.210;2023-07-08T03:45:36;15.40;28.70
530;DHT22;251;48.704;9.210;2023-07-08T03:48:03;15.30;29.80
530;DHT22;251;48.704;9.210;2023-07-08T03:50:31;15.20;30.00
530;DHT22;251;48.704;9.210;2023-07-08T03:52:58;15.20;28.90
530;DHT22;251;48.704;9.210;2023-07-08T03:55:30;15.20;29.00
530;DHT22;251;48.704;9.210;2023-07-08T03:57:58;15.20;29.00
530;DHT22;251;48.704;9.210;2023-07-08T04:00:27;15.10;31.20
530;DHT22;251;48.704;9.210;2023-07-08T04:02:56;15.10;31.60
530;DHT22;251;48.704;9.210;2023-07-08T04:05:23;15.00;31.50
530;DHT22;251;48.704;9.210;2023-07-08T04:07:50;15.00;32.30
530;DHT22;251;48.704;9.210;2023-07-08T04:10:17;15.00;31.90
530;DHT22;251;48.704;9.210;2023-07-08T04:12:45;15.00;33.30
530;DHT22;251;48.704;9.210;2023-07-08T04:15:13;15.00;33.10
530;DHT22;251;48.704;9.210;2023-07-08T04:17:42;15.00;33.60
530;DHT22;251;48.704;9.210;2023-07-08T04:20:12;15.00;34.40
530;DHT22;251;48.704;9.210;2023-07-08T04:22:40;15.10;33.70
530;DHT22;251;48.704;9.210;2023-07-08T04:25:07;15.20;33.60
530;DHT22;251;48.704;9.210;2023-07-08T04:27:36;15.30;33.60
530;DHT22;251;48.704;9.210;2023-07-08T04:30:06;15.50;35.10
530;DHT22;251;48.704;9.210;2023-07-08T04:32:33;15.60;33.80
530;DHT22;251;48.704;9.210;2023-07-08T04:35:00;15.70;32.40
530;DHT22;251;48.704;9.210;2023-07-08T04:37:27;15.80;29.60
530;DHT22;251;48.704;9.210;2023-07-08T04:39:53;16.00;29.50
530;DHT22;251;48.704;9.210;2023-07-08T04:42:21;16.20;29.80
530;DHT22;251;48.704;9.210;2023-07-08T04:44:47;16.30;30.90
530;DHT22;251;48.704;9.210;2023-07-08T04:47:16;16.40;30.00
530;DHT22;251;48.704;9.210;2023-07-08T04:49:46;16.50;29.60
530;DHT22;251;48.704;9.210;2023-07-08T04:52:13;16.80;29.60
530;DHT22;251;48.704;9.210;2023-07-08T04:54:40;17.00;25.90
530;DHT22;251;48.704;9.210;2023-07-08T04:57:07;17.20;23.20
530;DHT22;251;48.704;9.210;2023-07-08T04:59:34;17.40;27.70
530;DHT22;251;48.704;9.210;2023-07-08T05:02:01;17.60;27.60
530;DHT22;251;48.704;9.210;2023-07-08T05:04:30;17.70;25.80
530;DHT22;251;48.704;9.210;2023-07-08T05:06:57;17.80;26.00
530;DHT22;251;48.704;9.210;2023-07-08T05:09:23;17.90;28.20
530;DHT22;251;48.704;9.210;2023-07-08T05:11:51;18.00;27.60
530;DHT22;251;48.704;9.210;2023-07-08T05:14:18;18.10;26.50
530;DHT22;251;48.704;9.210;2023-07-08T05:16:45;18.30;24.00
530;DHT22;251;48.704;9.210;2023-07-08T05:19:13;18.50;22.50
530;DHT22;251;48.704;9.210;2023-07-08T05:21:41;18.70;24.00
530;DHT22;251;48.704;9.210;2023-07-08T05:24:10;18.90;17.20
530;DHT22;251;48.704;9.210;2023-07-08T05:26:37;19.10;18.90
530;DHT22;251;48.704;9.210;2023-07-08T05:29:04;19.30;25.60
530;DHT22;251;48.704;9.210;2023-07-08T05:31:32;19.40;20.00
530;DHT22;251;48.704;9.210;2023-07-08T05:34:00;19.50;18.90
530;DHT22;251;48.704;9.210;2023-07-08T05:36:27;19.70;16.40
530;DHT22;251;48.704;9.210;2023-07-08T05:38:56;19.80;21.80
530;DHT22;251;48.704;9.210;2023-07-08T05:41:23;19.80;22.50
530;DHT22;251;48.704;9.210;2023-07-08T05:43:49;19.90;21.00
530;DHT22;251;48.704;9.210;2023-07-08T05:46:16;20.10;18.30
530;DHT22;251;48.704;9.210;2023-07-08T05:48:43;20.20;17.30
530;DHT22;251;48.704;9.210;2023-07-08T05:51:09;20.30;17.20
530;DHT22;251;48.704;9.210;2023-07-08T05:53:36;20.40;18.60
530;DHT22;251;48.704;9.210;2023-07-08T05:56:04;20.40;21.40
530;DHT22;251;48.704;9.210;2023-07-08T05:58:31;20.50;17.30
530;DHT22;251;48.704;9.210;2023-07-08T06:00:59;20.60;15.70
530;DHT22;251;48.704;9.210;2023-07-08T06:03:26;20.70;15.00
530;DHT22;251;48.704;9.210;2023-07-08T06:05:52;20.70;14.10
530;DHT22;251;48.704;9.210;2023-07-08T06:08:19;20.80;16.60
530;DHT22;251;48.704;9.210;2023-07-08T06:10:46;20.90;10.20
530;DHT22;251;48.704;9.210;2023-07-08T06:13:15;21.10;10.90
530;DHT22;251;48.704;9.210;2023-07-08T06:15:42;21.10;10.70
530;DHT22;251;48.704;9.210;2023-07-08T06:18:09;21.30;12.00
530;DHT22;251;48.704;9.210;2023-07-08T06:20:36;21.40;12.80
530;DHT22;251;48.704;9.210;2023-07-08T06:23:03;21.50;12.70
530;DHT22;251;48.704;9.210;2023-07-08T06:25:30;21.70;10.50
530;DHT22;251;48.704;9.210;2023-07-08T06:27:57;21.80;12.20
530;DHT22;251;48.704;9.210;2023-07-08T06:30:25;21.90;10.50
530;DHT22;251;48.704;9.210;2023-07-08T06:32:52;22.00;6.10
530;DHT22;251;48.704;9.210;2023-07-08T06:35:19;22.10;8.80
530;DHT22;251;48.704;9.210;2023-07-08T06:37:47;22.20;6.00
530;DHT22;251;48.704;9.210;2023-07-08T06:40:14;22.30;4.30
530;DHT22;251;48.704;9.210;2023-07-08T06:42:43;22.40;6.40
530;DHT22;251;48.704;9.210;2023-07-08T06:45:41;22.50;7.70
530;DHT22;251;48.704;9.210;2023-07-08T06:48:09;22.50;9.60
530;DHT22;251;48.704;9.210;2023-07-08T06:50:37;22.50;4.30
530;DHT22;251;48.704;9.210;2023-07-08T06:53:04;22.60;6.80
530;DHT22;251;48.704;9.210;2023-07-08T06:55:33;22.70;4.80
530;DHT22;251;48.704;9.210;2023-07-08T06:58:00;22.80;3.30
530;DHT22;251;48.704;9.210;2023-07-08T07:00:27;23.00;4.70
530;DHT22;251;48.704;9.210;2023-07-08T07:02:56;23.10;4.50
530;DHT22;251;48.704;9.210;2023-07-08T07:05:23;23.20;3.60
530;DHT22;251;48.704;9.210;2023-07-08T07:07:50;23.20;2.20
530;DHT22;251;48.704;9.210;2023-07-08T07:10:18;23.20;2.60
530;DHT22;251;48.704;9.210;2023-07-08T07:12:45;23.30;3.00
530;DHT22;251;48.704;9.210;2023-07-08T07:15:12;23.20;2.90
530;DHT22;251;48.704;9.210;2023-07-08T07:17:39;23.30;2.20
530;DHT22;251;48.704;9.210;2023-07-08T07:20:08;23.30;3.80
530;DHT22;251;48.704;9.210;2023-07-08T07:22:35;23.40;3.20
530;DHT22;251;48.704;9.210;2023-07-08T07:25:02;23.40;6.30
530;DHT22;251;48.704;9.210;2023-07-08T07:27:30;23.50;5.30
530;DHT22;251;48.704;9.210;2023-07-08T07:29:57;23.60;4.50
530;DHT22;251;48.704;9.210;2023-07-08T07:32:25;23.70;5.50
530;DHT22;251;48.704;9.210;2023-07-08T07:34:52;23.70;6.70
530;DHT22;251;48.704;9.210;2023-07-08T07:37:22;23.70;7.20
530;DHT22;251;48.704;9.210;2023-07-08T07:39:52;23.80;6.30
530;DHT22;251;48.704;9.210;2023-07-08T07:42:19;23.90;6.60
530;DHT22;251;48.704;9.210;2023-07-08T07:44:46;23.90;4.20
530;DHT22;251;48.704;9.210;2023-07-08T07:47:13;24.00;2.20
530;DHT22;251;48.704;9.210;2023-07-08T07:49:40;24.10;3.60
530;DHT22;251;48.704;9.210;2023-07-08T07:52:07;24.10;5.80
530;DHT22;251;48.704;9.210;2023-07-08T07:54:37;24.10;5.50
530;DHT22;251;48.704;9.210;2023-07-08T07:57:05;24.10;6.80
530;DHT22;251;48.704;9.210;2023-07-08T07:59:31;24.20;5.70
530;DHT22;251;48.704;9.210;2023-07-08T08:01:58;24.20;4.40
530;DHT22;251;48.704;9.210;2023-07-08T08:04:25;24.30;5.30
530;DHT22;251;48.704;9.210;2023-07-08T08:06:52;24.30;4.80
530;DHT22;251;48.704;9.210;2023-07-08T08:09:18;24.30;2.70
530;DHT22;251;48.704;9.210;2023-07-08T08:11:47;24.30;6.70
530;DHT22;251;48.704;9.210;2023-07-08T08:14:13;24.30;5.40
530;DHT22;251;48.704;9.210;2023-07-08T08:16:40;24.30;5.30
530;DHT22;251;48.704;9.210;2023-07-08T08:19:07;24.30;7.30
530;DHT22;251;48.704;9.210;2023-07-08T08:21:34;24.30;4.90
530;DHT22;251;48.704;9.210;2023-07-08T08:24:00;24.40;5.70
530;DHT22;251;48.704;9.210;2023-07-08T08:26:27;24.40;5.10
530;DHT22;251;48.704;9.210;2023-07-08T08:28:55;24.40;6.40
530;DHT22;251;48.704;9.210;2023-07-08T08:31:22;24.40;4.50
530;DHT22;251;48.704;9.210;2023-07-08T08:33:51;24.40;4.00
530;DHT22;251;48.704;9.210;2023-07-08T08:36:18;24.40;3.60
530;DHT22;251;48.704;9.210;2023-07-08T08:38:46;24.50;4.70
530;DHT22;251;48.704;9.210;2023-07-08T08:41:15;24.60;3.40
530;DHT22;251;48.704;9.210;2023-07-08T08:43:43;24.80;3.40
530;DHT22;251;48.704;9.210;2023-07-08T08:46:19;24.90;3.10
530;DHT22;251;48.704;9.210;2023-07-08T08:48:53;24.90;3.30
530;DHT22;251;48.704;9.210;2023-07-08T08:51:25;25.10;3.20
530;DHT22;251;48.704;9.210;2023-07-08T08:53:56;25.30;3.80
530;DHT22;251;48.704;9.210;2023-07-08T08:56:25;25.40;1.70
530;DHT22;251;48.704;9.210;2023-07-08T08:58:57;25.40;1.70
530;DHT22;251;48.704;9.210;2023-07-08T09:01:26;25.50;1.70
530;DHT22;251;48.704;9.210;2023-07-08T09:03:56;25.70;1.00
530;DHT22;251;48.704;9.210;2023-07-08T09:06:26;25.80;1.20
530;DHT22;251;48.704;9.210;2023-07-08T09:08:54;25.90;1.00
530;DHT22;251;48.704;9.210;2023-07-08T09:11:38;26.00;1.00
530;DHT22;251;48.704;9.210;2023-07-08T09:14:14;26.10;1.00
530;DHT22;251;48.704;9.210;2023-07-08T09:16:46;26.30;1.00
530;DHT22;251;48.704;9.210;2023-07-08T09:19:23;26.50;1.00
530;DHT22;251;48.704;9.210;2023-07-08T09:21:55;26.70;1.00
530;DHT22;251;48.704;9.210;2023-07-08T09:24:29;26.70;1.00
530;DHT22;251;48.704;9.210;2023-07-08T09:26:57;26.80;1.00
530;DHT22;251;48.704;9.210;2023-07-08T09:29:27;26.80;1.00
530;DHT22;251;48.704;9.210;2023-07-08T09:31:57;26.90;1.00
530;DHT22;251;48.704;9.210;2023-07-08T09:34:36;27.00;1.00
530;DHT22;251;48.704;9.210;2023-07-08T09:37:21;27.00;1.00
530;DHT22;251;48.704;9.210;2023-07-08T09:39:47;27.00;1.00
530;DHT22;251;48.704;9.210;2023-07-08T09:42:15;27.00;1.00
530;DHT22;251;48.704;9.210;2023-07-08T09:44:44;27.10;1.00
530;DHT22;251;48.704;9.210;2023-07-08T09:47:21;27.00;1.00
530;DHT22;251;48.704;9.210;2023-07-08T09:49:49;27.00;1.00
530;DHT22;251;48.704;9.210;2023-07-08T09:52:16;27.00;1.00
530;DHT22;251;48.704;9.210;2023-07-08T09:54:45;27.10;1.00
530;DHT22;251;48.704;9.210;2023-07-08T09:57:21;27.30;1.00
530;DHT22;251;48.704;9.210;2023-07-08T09:59:56;27.30;1.00
530;DHT22;251;48.704;9.210;2023-07-08T10:02:31;27.40;1.00
530;DHT22;251;48.704;9.210;2023-07-08T10:05:00;27.40;1.00
530;DHT22;251;48.704;9.210;2023-07-08T10:07:29;27.30;1.00
530;DHT22;251;48.704;9.210;2023-07-08T10:10:00;27.30;1.00
530;DHT22;251;48.704;9.210;2023-07-08T10:12:28;27.30;1.00
530;DHT22;251;48.704;9.210;2023-07-08T10:14:58;27.30;1.00
530;DHT22;251;48.704;9.210;2023-07-08T10:17:26;27.20;1.00
530;DHT22;251;48.704;9.210;2023-07-08T10:19:54;27.30;1.00
530;DHT22;251;48.704;9.210;2023-07-08T10:22:37;27.50;1.00
530;DHT22;251;48.704;9.210;2023-07-08T10:25:16;27.60;1.00
530;DHT22;251;48.704;9.210;2023-07-08T10:27:50;27.90;1.00
530;DHT22;251;48.704;9.210;2023-07-08T10:30:23;28.00;1.00
530;DHT22;251;48.704;9.210;2023-07-08T10:33:00;28.20;1.00
530;DHT22;251;48.704;9.210;2023-07-08T10:35:37;28.30;1.00
530;DHT22;251;48.704;9.210;2023-07-08T10:38:20;28.40;1.00
530;DHT22;251;48.704;9.210;2023-07-08T10:40:53;28.30;1.00
530;DHT22;251;48.704;9.210;2023-07-08T10:43:30;28.40;1.00
530;DHT22;251;48.704;9.210;2023-07-08T10:46:08;28.40;1.00
530;DHT22;251;48.704;9.210;2023-07-08T10:48:49;28.60;1.00
530;DHT22;251;48.704;9.210;2023-07-08T10:51:31;28.80;1.00
530;DHT22;251;48.704;9.210;2023-07-08T10:54:24;28.90;1.00
530;DHT22;251;48.704;9.210;2023-07-08T10:57:06;29.10;1.00
530;DHT22;251;48.704;9.210;2023-07-08T10:59:44;29.40;1.00
530;DHT22;251;48.704;9.210;2023-07-08T11:02:46;29.70;1.00
530;DHT22;251;48.704;9.210;2023-07-08T11:05:25;30.00;1.00
530;DHT22;251;48.704;9.210;2023-07-08T11:07:59;30.00;1.00
530;DHT22;251;48.704;9.210;2023-07-08T11:10:33;30.10;1.00
530;DHT22;251;48.704;9.210;2023-07-08T11:13:04;30.20;1.00
530;DHT22;251;48.704;9.210;2023-07-08T11:15:40;30.20;1.00
530;DHT22;251;48.704;9.210;2023-07-08T11:18:13;30.30;1.00
530;DHT22;251;48.704;9.210;2023-07-08T11:20:45;30.70;1.00
530;DHT22;251;48.704;9.210;2023-07-08T11:23:25;31.10;1.00
530;DHT22;251;48.704;9.210;2023-07-08T11:26:09;31.60;1.00
530;DHT22;251;48.704;9.210;2023-07-08T11:28:38;31.40;1.00
530;DHT22;251;48.704;9.210;2023-07-08T11:31:05;31.20;1.00
530;DHT22;251;48.704;9.210;2023-07-08T11:33:33;31.40;1.00
530;DHT22;251;48.704;9.210;2023-07-08T11:36:02;31.50;1.00
530;DHT22;251;48.704;9.210;2023-07-08T11:38:33;31.60;1.00
530;DHT22;251;48.704;9.210;2023-07-08T11:41:02;31.80;1.00
530;DHT22;251;48.704;9.210;2023-07-08T11:43:37;31.80;1.00
530;DHT22;251;48.704;9.210;2023-07-08T11:46:07;31.80;1.00
530;DHT22;251;48.704;9.210;2023-07-08T11:48:40;31.90;1.00
530;DHT22;251;48.704;9.210;2023-07-08T11:51:09;31.80;1.00
530;DHT22;251;48.704;9.210;2023-07-08T11:53:47;31.80;1.00
530;DHT22;251;48.704;9.210;2023-07-08T11:56:24;32.00;1.00
530;DHT22;251;48.704;9.210;2023-07-08T11:58:58;32.20;1.00
530;DHT22;251;48.704;9.210;2023-07-08T12:01:27;32.30;1.00
530;DHT22;251;48.704;9.210;2023-07-08T12:03:59;32.40;1.00
530;DHT22;251;48.704;9.210;2023-07-08T12:06:47;32.50;1.00
530;DHT22;251;48.704;9.210;2023-07-08T12:09:22;32.60;1.00
530;DHT22;251;48.704;9.210;2023-07-08T12:11:55;32.80;1.00
530;DHT22;251;48.704;9.210;2023-07-08T12:14:23;33.00;1.00
530;DHT22;251;48.704;9.210;2023-07-08T12:16:50;33.10;1.00
530;DHT22;251;48.704;9.210;2023-07-08T12:19:19;33.30;1.00
530;DHT22;251;48.704;9.210;2023-07-08T12:21:51;33.50;1.00
530;DHT22;251;48.704;9.210;2023-07-08T12:24:19;33.70;1.00
530;DHT22;251;48.704;9.210;2023-07-08T12:26:51;33.90;1.00
530;DHT22;251;48.704;9.210;2023-07-08T12:29:18;34.00;1.00
530;DHT22;251;48.704;9.210;2023-07-08T12:31:45;34.10;1.00
530;DHT22;251;48.704;9.210;2023-07-08T12:34:14;34.30;1.00
530;DHT22;251;48.704;9.210;2023-07-08T12:36:42;34.40;1.00
530;DHT22;251;48.704;9.210;2023-07-08T12:39:14;34.60;1.00
530;DHT22;251;48.704;9.210;2023-07-08T12:41:44;34.80;1.00
530;DHT22;251;48.704;9.210;2023-07-08T12:44:17;34.80;1.00
530;DHT22;251;48.704;9.210;2023-07-08T12:46:46;35.10;1.00
530;DHT22;251;48.704;9.210;2023-07-08T12:49:14;35.40;1.00
530;DHT22;251;48.704;9.210;2023-07-08T12:51:43;35.60;1.00
530;DHT22;251;48.704;9.210;2023-07-08T12:54:11;35.80;1.00
530;DHT22;251;48.704;9.210;2023-07-08T12:56:38;35.70;1.00
530;DHT22;251;48.704;9.210;2023-07-08T12:59:08;35.80;1.00
530;DHT22;251;48.704;9.210;2023-07-08T13:01:36;35.90;1.00
530;DHT22;251;48.704;9.210;2023-07-08T13:04:05;36.10;1.00
530;DHT22;251;48.704;9.210;2023-07-08T13:06:34;36.40;1.00
530;DHT22;251;48.704;9.210;2023-07-08T13:09:07;36.60;1.00
530;DHT22;251;48.704;9.210;2023-07-08T13:11:36;36.80;1.00
530;DHT22;251;48.704;9.210;2023-07-08T13:14:06;37.10;1.00
530;DHT22;251;48.704;9.210;2023-07-08T13:16:35;37.30;1.00
530;DHT22;251;48.704;9.210;2023-07-08T13:19:02;37.70;1.00
530;DHT22;251;48.704;9.210;2023-07-08T13:21:30;37.70;1.00
530;DHT22;251;48.704;9.210;2023-07-08T13:23:58;37.80;1.00
530;DHT22;251;48.704;9.210;2023-07-08T13:26:27;38.20;1.00
530;DHT22;251;48.704;9.210;2023-07-08T13:29:00;38.30;1.00
530;DHT22;251;48.704;9.210;2023-07-08T13:31:34;38.70;1.00
530;DHT22;251;48.704;9.210;2023-07-08T13:34:07;38.80;1.00
530;DHT22;251;48.704;9.210;2023-07-08T13:36:36;38.90;1.00
530;DHT22;251;48.704;9.210;2023-07-08T13:39:07;39.00;1.00
530;DHT22;251;48.704;9.210;2023-07-08T13:41:35;39.30;1.00
530;DHT22;251;48.704;9.210;2023-07-08T13:44:06;39.70;1.00
530;DHT22;251;48.704;9.210;2023-07-08T13:46:37;39.90;1.00
530;DHT22;251;48.704;9.210;2023-07-08T13:49:12;40.10;1.00
530;DHT22;251;48.704;9.210;2023-07-08T13:51:40;40.10;1.00
530;DHT22;251;48.704;9.210;2023-07-08T13:54:13;40.30;1.00
530;DHT22;251;48.704;9.210;2023-07-08T13:56:41;40.50;1.00
530;DHT22;251;48.704;9.210;2023-07-08T13:59:11;40.70;1.00
530;DHT22;251;48.704;9.210;2023-07-08T14:01:42;40.90;1.00
530;DHT22;251;48.704;9.210;2023-07-08T14:04:10;41.30;1.00
530;DHT22;251;48.704;9.210;2023-07-08T14:06:38;41.40;1.00
530;DHT22;251;48.704;9.210;2023-07-08T14:09:10;41.50;1.00
530;DHT22;251;48.704;9.210;2023-07-08T14:11:37;41.50;1.00
530;DHT22;251;48.704;9.210;2023-07-08T14:14:04;41.70;1.00
530;DHT22;251;48.704;9.210;2023-07-08T14:16:34;41.70;1.00
530;DHT22;251;48.704;9.210;2023-07-08T14:19:05;41.80;1.00
530;DHT22;251;48.704;9.210;2023-07-08T14:21:35;41.70;1.00
530;DHT22;251;48.704;9.210;2023-07-08T14:24:02;41.50;1.00
530;DHT22;251;48.704;9.210;2023-07-08T14:26:29;41.50;1.00
530;DHT22;251;48.704;9.210;2023-07-08T14:28:56;41.60;1.00
530;DHT22;251;48.704;9.210;2023-07-08T14:31:24;41.70;1.00
530;DHT22;251;48.704;9.210;2023-07-08T14:33:58;41.10;1.00
530;DHT22;251;48.704;9.210;2023-07-08T14:36:28;40.30;1.00
530;DHT22;251;48.704;9.210;2023-07-08T14:38:55;39.50;1.00
530;DHT22;251;48.704;9.210;2023-07-08T14:41:22;39.20;1.00
530;DHT22;251;48.704;9.210;2023-07-08T14:43:49;39.30;1.00
530;DHT22;251;48.704;9.210;2023-07-08T14:46:16;39.80;1.00
530;DHT22;251;48.704;9.210;2023-07-08T14:48:43;39.40;1.00
530;DHT22;251;48.704;9.210;2023-07-08T14:51:10;38.70;1.00
530;DHT22;251;48.704;9.210;2023-07-08T14:53:38;38.10;1.00
530;DHT22;251;48.704;9.210;2023-07-08T14:56:11;38.10;1.00
530;DHT22;251;48.704;9.210;2023-07-08T14:58:40;38.30;1.00
530;DHT22;251;48.704;9.210;2023-07-08T15:01:13;38.40;1.00
530;DHT22;251;48.704;9.210;2023-07-08T15:03:41;38.10;1.00
530;DHT22;251;48.704;9.210;2023-07-08T15:06:09;37.90;1.00
530;DHT22;251;48.704;9.210;2023-07-08T15:08:37;37.50;1.00
530;DHT22;251;48.704;9.210;2023-07-08T15:11:04;36.90;1.00
530;DHT22;251;48.704;9.210;2023-07-08T15:13:33;36.40;1.00
530;DHT22;251;48.704;9.210;2023-07-08T15:16:00;35.80;1.00
530;DHT22;251;48.704;9.210;2023-07-08T15:18:27;35.60;1.00
530;DHT22;251;48.704;9.210;2023-07-08T15:20:54;35.10;1.00
530;DHT22;251;48.704;9.210;2023-07-08T15:23:21;34.80;1.00
530;DHT22;251;48.704;9.210;2023-07-08T15:25:49;34.30;1.00
530;DHT22;251;48.704;9.210;2023-07-08T15:28:20;34.00;1.00
530;DHT22;251;48.704;9.210;2023-07-08T15:30:50;33.80;1.00
530;DHT22;251;48.704;9.210;2023-07-08T15:33:17;33.50;1.00
530;DHT22;251;48.704;9.210;2023-07-08T15:35:44;33.20;1.00
530;DHT22;251;48.704;9.210;2023-07-08T15:38:11;32.90;1.00
530;DHT22;251;48.704;9.210;2023-07-08T15:40:38;32.70;1.00
530;DHT22;251;48.704;9.210;2023-07-08T15:43:13;32.50;1.00
530;DHT22;251;48.704;9.210;2023-07-08T15:45:41;32.30;1.00
530;DHT22;251;48.704;9.210;2023-07-08T15:48:12;32.20;1.00
530;DHT22;251;48.704;9.210;2023-07-08T15:50:39;32.10;1.00
530;DHT22;251;48.704;9.210;2023-07-08T15:53:06;31.90;1.00
530;DHT22;251;48.704;9.210;2023-07-08T15:55:35;31.80;1.00
530;DHT22;251;48.704;9.210;2023-07-08T15:58:05;31.70;1.00
530;DHT22;251;48.704;9.210;2023-07-08T16:00:37;31.80;1.00
530;DHT22;251;48.704;9.210;2023-07-08T16:03:07;31.90;1.00
530;DHT22;251;48.704;9.210;2023-07-08T16:05:37;32.80;1.00
530;DHT22;251;48.704;9.210;2023-07-08T16:08:04;33.80;1.00
530;DHT22;251;48.704;9.210;2023-07-08T16:10:31;35.00;1.00
530;DHT22;251;48.704;9.210;2023-07-08T16:12:59;36.10;1.00
530;DHT22;251;48.704;9.210;2023-07-08T16:15:30;37.00;1.00
530;DHT22;251;48.704;9.210;2023-07-08T16:17:59;38.00;1.00
530;DHT22;251;48.704;9.210;2023-07-08T16:20:28;38.80;1.00
530;DHT22;251;48.704;9.210;2023-07-08T16:22:56;39.40;1.00
530;DHT22;251;48.704;9.210;2023-07-08T16:25:26;40.00;1.00
530;DHT22;251;48.704;9.210;2023-07-08T16:27:55;40.40;1.00
530;DHT22;251;48.704;9.210;2023-07-08T16:30:22;40.70;1.00
530;DHT22;251;48.704;9.210;2023-07-08T16:32:49;40.90;1.00
530;DHT22;251;48.704;9.210;2023-07-08T16:35:19;41.10;1.00
530;DHT22;251;48.704;9.210;2023-07-08T16:37:48;41.10;1.00
530;DHT22;251;48.704;9.210;2023-07-08T16:40:16;41.20;1.00
530;DHT22;251;48.704;9.210;2023-07-08T16:42:46;41.40;1.00
530;DHT22;251;48.704;9.210;2023-07-08T16:45:16;41.50;1.00
530;DHT22;251;48.704;9.210;2023-07-08T16:47:43;41.70;1.00
530;DHT22;251;48.704;9.210;2023-07-08T16:50:10;41.60;1.00
530;DHT22;251;48.704;9.210;2023-07-08T16:52:38;41.70;1.00
530;DHT22;251;48.704;9.210;2023-07-08T16:55:09;41.70;1.00
530;DHT22;251;48.704;9.210;2023-07-08T16:57:37;41.70;1.00